createdAt,value
2022-08-09T00:00:21.581Z,96.90
2022-08-09T00:02:51.514Z,97.70
2022-08-09T00:06:19.203Z,97.30
2022-08-09T00:08:11.422Z,97.60
2022-08-09T00:10:41.208Z,97.20
2022-08-09T00:13:17.147Z,97.60
2022-08-09T00:15:59.133Z,97.70
2022-08-09T00:18:34.570Z,97.50
2022-08-09T00:21:05.391Z,97.80
2022-08-09T00:23:57.368Z,98.80
2022-08-09T00:26:29.759Z,98.00
2022-08-09T00:29:03.855Z,98.20
2022-08-09T00:31:59.594Z,98.30
2022-08-09T00:34:27.637Z,98.20
2022-08-09T00:37:00.245Z,98.40
2022-08-09T00:40:13.364Z,98.30
2022-08-09T00:44:11.596Z,98.00
2022-08-09T00:45:03.630Z,98.30
2022-08-09T00:47:43.306Z,99.10
2022-08-09T00:50:14.492Z,98.50
2022-08-09T00:52:43.325Z,98.90
2022-08-09T00:55:16.684Z,99.20
2022-08-09T00:57:59.250Z,98.70
2022-08-09T01:00:27.411Z,98.90
2022-08-09T01:03:13.687Z,98.90
2022-08-09T01:06:03.917Z,98.80
2022-08-09T01:09:24.553Z,98.70
2022-08-09T01:12:27.537Z,98.90
2022-08-09T01:15:22.038Z,98.80
2022-08-09T01:18:10.312Z,99.80
2022-08-09T01:20:55.522Z,98.60
2022-08-09T01:24:05.283Z,99.10
2022-08-09T01:26:54.466Z,99.40
2022-08-09T01:29:55.711Z,99.40
2022-08-09T01:32:34.914Z,99.20
2022-08-09T01:35:28.257Z,98.70
2022-08-09T01:38:10.259Z,98.80
2022-08-09T01:40:44.992Z,99.50
2022-08-09T01:43:24.207Z,99.90
2022-08-09T01:45:54.485Z,99.40
2022-08-09T01:48:29.586Z,99.40
2022-08-09T01:51:00.411Z,99.30
2022-08-09T01:53:40.917Z,99.90
2022-08-09T01:56:12.299Z,99.30
2022-08-09T01:58:43.746Z,99.40
2022-08-09T02:01:18.329Z,99.30
2022-08-09T02:03:47.410Z,99.50
2022-08-09T02:06:38.557Z,99.90
2022-08-09T02:09:16.423Z,99.60
2022-08-09T02:11:44.486Z,99.80
2022-08-09T02:14:26.248Z,99.90
2022-08-09T02:17:09.008Z,99.90
2022-08-09T02:19:44.589Z,99.90
2022-08-09T02:22:35.042Z,99.90
2022-08-09T02:25:09.980Z,99.90
2022-08-09T02:28:11.434Z,99.90
2022-08-09T02:30:52.107Z,99.90
2022-08-09T02:33:38.409Z,99.90
2022-08-09T02:36:18.976Z,99.90
2022-08-09T02:38:53.374Z,99.90
2022-08-09T02:41:31.272Z,99.90
2022-08-09T02:44:13.665Z,99.90
2022-08-09T02:46:56.678Z,99.90
2022-08-09T02:49:27.115Z,99.90
2022-08-09T02:52:08.416Z,99.90
2022-08-09T02:54:54.669Z,99.90
2022-08-09T02:57:26.877Z,99.90
2022-08-09T03:00:21.375Z,99.90
2022-08-09T03:02:58.482Z,99.90
2022-08-09T03:05:29.856Z,99.90
2022-08-09T03:08:04.481Z,99.90
2022-08-09T03:10:35.341Z,99.90
2022-08-09T03:13:08.473Z,99.90
2022-08-09T03:15:40.589Z,99.90
2022-08-09T03:18:31.251Z,99.90
2022-08-09T03:21:00.638Z,99.90
2022-08-09T03:23:28.422Z,99.90
2022-08-09T03:26:03.569Z,99.90
2022-08-09T03:28:34.896Z,99.90
2022-08-09T03:31:09.880Z,99.90
2022-08-09T03:33:53.135Z,99.90
2022-08-09T03:36:27.688Z,99.90
2022-08-09T03:38:56.444Z,99.90
2022-08-09T03:41:29.957Z,99.90
2022-08-09T03:44:10.287Z,99.90
2022-08-09T03:46:39.254Z,99.90
2022-08-09T03:49:09.552Z,99.90
2022-08-09T03:51:57.792Z,99.90
2022-08-09T03:54:40.835Z,99.90
2022-08-09T03:57:20.124Z,99.90
2022-08-09T03:59:54.341Z,99.90
2022-08-09T04:02:30.024Z,99.90
2022-08-09T04:05:06.004Z,99.90
2022-08-09T04:07:52.558Z,99.90
2022-08-09T04:10:28.715Z,99.90
2022-08-09T04:13:03.967Z,99.90
2022-08-09T04:16:18.208Z,99.90
2022-08-09T04:18:21.514Z,99.90
2022-08-09T04:20:51.425Z,99.90
2022-08-09T04:23:24.303Z,99.90
2022-08-09T04:25:53.034Z,99.90
2022-08-09T04:28:33.195Z,99.90
2022-08-09T04:31:09.234Z,99.90
2022-08-09T04:33:51.869Z,99.90
2022-08-09T04:36:24.280Z,99.90
2022-08-09T04:38:52.398Z,99.90
2022-08-09T04:41:19.796Z,99.90
2022-08-09T04:44:06.603Z,99.90
2022-08-09T04:46:57.209Z,99.90
2022-08-09T04:49:40.096Z,99.90
2022-08-09T04:52:18.580Z,99.90
2022-08-09T04:54:51.607Z,99.90
2022-08-09T04:57:24.496Z,99.90
2022-08-09T04:59:56.083Z,99.90
2022-08-09T05:02:27.346Z,99.90
2022-08-09T05:04:55.606Z,99.90
2022-08-09T05:07:24.500Z,99.90
2022-08-09T05:09:51.450Z,99.90
2022-08-09T05:12:21.199Z,99.90
2022-08-09T05:14:49.808Z,99.90
2022-08-09T05:18:39.352Z,99.90
2022-08-09T05:20:05.440Z,99.90
2022-08-09T05:22:36.548Z,99.90
2022-08-09T05:25:24.221Z,99.90
2022-08-09T05:27:55.386Z,99.90
2022-08-09T05:30:22.577Z,99.90
2022-08-09T05:32:50.869Z,99.90
2022-08-09T05:35:22.021Z,99.90
2022-08-09T05:37:50.320Z,99.90
2022-08-09T05:40:18.336Z,99.90
2022-08-09T05:42:46.040Z,99.90
2022-08-09T05:45:14.284Z,99.90
2022-08-09T05:47:51.727Z,99.90
2022-08-09T05:50:25.547Z,99.90
2022-08-09T05:53:02.321Z,99.90
2022-08-09T05:55:29.408Z,99.90
2022-08-09T05:57:58.775Z,99.90
2022-08-09T06:00:32.871Z,99.90
2022-08-09T06:03:03.886Z,99.90
2022-08-09T06:05:56.872Z,99.90
2022-08-09T06:08:25.213Z,99.90
2022-08-09T06:10:55.364Z,99.90
2022-08-09T06:13:23.189Z,99.90
2022-08-09T06:15:52.351Z,99.90
2022-08-09T06:18:24.778Z,99.90
2022-08-09T06:20:58.435Z,99.90
2022-08-09T06:23:55.033Z,99.90
2022-08-09T06:26:20.509Z,99.90
2022-08-09T06:28:59.297Z,99.90
2022-08-09T06:31:31.227Z,99.90
2022-08-09T06:34:07.292Z,99.90
2022-08-09T06:36:34.641Z,99.90
2022-08-09T06:39:02.735Z,99.90
2022-08-09T06:42:00.485Z,99.90
2022-08-09T06:44:25.684Z,99.90
2022-08-09T06:46:55.171Z,99.90
2022-08-09T06:49:29.342Z,99.90
2022-08-09T06:52:12.098Z,99.90
2022-08-09T06:54:42.579Z,99.90
2022-08-09T06:57:12.021Z,99.90
2022-08-09T07:00:55.799Z,99.90
2022-08-09T07:02:29.269Z,99.80
2022-08-09T07:04:58.289Z,99.90
2022-08-09T07:07:28.617Z,99.90
2022-08-09T07:10:29.820Z,99.30
2022-08-09T07:13:00.108Z,98.10
2022-08-09T07:16:38.753Z,99.00
2022-08-09T07:18:19.692Z,98.50
2022-08-09T07:20:47.751Z,98.30
2022-08-09T07:23:18.940Z,98.40
2022-08-09T07:25:55.413Z,97.80
2022-08-09T07:28:34.784Z,97.60
2022-08-09T07:31:04.924Z,97.30
2022-08-09T07:33:52.986Z,97.60
2022-08-09T07:36:20.571Z,97.00
2022-08-09T07:38:58.201Z,97.00
2022-08-09T07:41:27.668Z,96.90
2022-08-09T07:44:00.370Z,96.70
2022-08-09T07:46:28.091Z,95.80
2022-08-09T07:48:58.936Z,95.30
2022-08-09T07:52:05.143Z,95.70
2022-08-09T07:54:14.185Z,95.30
2022-08-09T07:56:49.163Z,95.30
2022-08-09T07:59:34.790Z,95.40
2022-08-09T08:02:09.013Z,94.90
2022-08-09T08:04:37.225Z,94.20
2022-08-09T08:07:09.483Z,93.60
2022-08-09T08:09:54.944Z,93.50
2022-08-09T08:12:42.311Z,93.20
2022-08-09T08:15:23.070Z,92.70
2022-08-09T08:17:53.868Z,91.70
2022-08-09T08:20:30.501Z,92.40
2022-08-09T08:23:06.901Z,91.60
2022-08-09T08:25:48.537Z,91.80
2022-08-09T08:28:26.236Z,91.20
2022-08-09T08:31:04.872Z,90.70
2022-08-09T08:33:53.832Z,90.60
2022-08-09T08:36:29.620Z,91.00
2022-08-09T08:38:59.944Z,89.90
2022-08-09T08:41:41.912Z,89.10
2022-08-09T08:44:23.107Z,88.80
2022-08-09T08:47:02.139Z,88.60
2022-08-09T08:49:38.494Z,89.80
2022-08-09T08:52:58.202Z,89.40
2022-08-09T08:55:08.795Z,86.80
2022-08-09T08:57:37.407Z,85.70
2022-08-09T09:00:17.222Z,85.70
2022-08-09T09:02:52.667Z,85.50
2022-08-09T09:05:57.358Z,84.60
2022-08-09T09:08:30.537Z,84.40
2022-08-09T09:11:03.003Z,82.50
2022-08-09T09:13:55.735Z,81.00
2022-08-09T09:16:30.341Z,81.60
2022-08-09T09:19:36.990Z,79.10
2022-08-09T09:22:11.227Z,79.20
2022-08-09T09:24:59.315Z,78.80
2022-08-09T09:28:05.188Z,76.50
2022-08-09T09:30:47.392Z,78.70
2022-08-09T09:33:16.751Z,78.70
2022-08-09T09:36:19.923Z,78.20
2022-08-09T09:38:58.129Z,77.70
2022-08-09T09:41:33.316Z,75.90
2022-08-09T09:44:25.923Z,76.10
2022-08-09T09:47:10.121Z,75.50
2022-08-09T09:49:56.202Z,73.60
2022-08-09T09:52:52.263Z,76.00
2022-08-09T09:55:28.307Z,71.40
2022-08-09T09:58:17.435Z,71.70
2022-08-09T10:00:59.546Z,71.70
2022-08-09T10:03:57.063Z,71.90
2022-08-09T10:06:32.051Z,69.00
2022-08-09T10:09:21.509Z,69.60
2022-08-09T10:12:14.803Z,69.20
2022-08-09T10:14:49.954Z,67.20
2022-08-09T10:17:50.875Z,66.50
2022-08-09T10:20:32.898Z,67.40
2022-08-09T10:23:20.029Z,64.20
2022-08-09T10:26:06.997Z,63.10
2022-08-09T10:28:40.611Z,65.40
2022-08-09T10:34:10.231Z,63.50
2022-08-09T10:36:45.405Z,63.50
2022-08-09T10:39:16.118Z,65.20
2022-08-09T10:41:47.999Z,64.60
2022-08-09T10:44:21.904Z,64.10
2022-08-09T10:48:17.119Z,63.80
2022-08-09T10:51:08.978Z,59.40
2022-08-09T10:53:55.245Z,60.10
2022-08-09T10:56:31.308Z,58.70
2022-08-09T10:59:01.123Z,58.30
2022-08-09T11:03:14.572Z,59.00
2022-08-09T11:04:31.003Z,59.30
2022-08-09T11:06:59.975Z,59.10
2022-08-09T11:09:41.200Z,59.90
2022-08-09T11:12:29.878Z,59.00
2022-08-09T11:15:01.325Z,59.00
2022-08-09T11:17:31.757Z,59.80
2022-08-09T11:20:07.833Z,58.90
2022-08-09T11:22:45.169Z,59.90
2022-08-09T11:25:15.344Z,57.00
2022-08-09T11:28:02.561Z,57.00
2022-08-09T11:30:35.534Z,56.60
2022-08-09T11:33:03.128Z,57.00
2022-08-09T11:35:50.177Z,56.40
2022-08-09T11:38:28.642Z,55.40
2022-08-09T11:41:16.482Z,55.60
2022-08-09T11:43:49.158Z,56.00
2022-08-09T11:46:26.756Z,55.30
2022-08-09T11:49:04.913Z,55.30
2022-08-09T11:52:59.107Z,54.90
2022-08-09T11:55:53.163Z,54.10
2022-08-09T11:58:30.098Z,54.70
2022-08-09T12:01:37.495Z,56.30
2022-08-09T12:04:23.719Z,55.80
2022-08-09T12:06:56.365Z,55.20
2022-08-09T12:09:34.003Z,54.70
2022-08-09T12:12:12.370Z,53.30
2022-08-09T12:15:08.123Z,53.60
2022-08-09T12:17:34.363Z,54.00
2022-08-09T12:20:22.803Z,53.40
2022-08-09T12:22:58.122Z,52.70
2022-08-09T12:25:36.492Z,53.20
2022-08-09T12:29:14.708Z,53.40
2022-08-09T12:32:02.762Z,52.50
2022-08-09T12:34:40.485Z,53.20
2022-08-09T12:37:24.084Z,52.80
2022-08-09T12:40:08.429Z,52.10
2022-08-09T12:42:36.235Z,52.20
2022-08-09T12:45:32.212Z,52.70
2022-08-09T12:47:53.670Z,51.60
2022-08-09T12:50:23.672Z,51.00
2022-08-09T12:53:08.218Z,50.50
2022-08-09T12:56:16.128Z,50.90
2022-08-09T12:58:27.191Z,51.30
2022-08-09T13:00:55.545Z,51.40
2022-08-09T13:03:53.515Z,50.90
2022-08-09T13:06:34.674Z,49.60
2022-08-09T13:09:16.893Z,49.70
2022-08-09T13:11:47.933Z,50.80
2022-08-09T13:14:41.026Z,50.10
2022-08-09T13:17:21.814Z,49.30
2022-08-09T13:20:14.068Z,49.50
2022-08-09T13:23:06.021Z,47.90
2022-08-09T13:25:54.410Z,47.70
2022-08-09T13:28:34.606Z,47.80
2022-08-09T13:32:17.961Z,47.40
2022-08-09T13:33:56.649Z,47.30
2022-08-09T13:36:42.064Z,48.30
2022-08-09T13:41:20.893Z,48.10
2022-08-09T13:42:12.515Z,49.00
2022-08-09T13:44:43.090Z,47.50
2022-08-09T13:47:27.705Z,47.10
2022-08-09T13:50:18.091Z,48.40
2022-08-09T13:52:57.201Z,46.70
2022-08-09T13:55:24.694Z,47.80
2022-08-09T13:57:58.066Z,47.20
2022-08-09T14:00:27.281Z,47.10
2022-08-09T14:03:03.466Z,47.70
2022-08-09T14:05:58.952Z,47.00
2022-08-09T14:08:31.591Z,47.40
2022-08-09T14:10:59.523Z,47.00
2022-08-09T14:14:22.720Z,46.20
2022-08-09T14:16:19.422Z,45.90
2022-08-09T14:18:51.715Z,45.20
2022-08-09T14:21:24.002Z,45.60
2022-08-09T14:23:56.529Z,45.60
2022-08-09T14:26:37.767Z,45.80
2022-08-09T14:30:15.098Z,44.80
2022-08-09T14:31:55.815Z,44.80
2022-08-09T14:34:31.892Z,44.70
2022-08-09T14:37:08.111Z,44.30
2022-08-09T14:39:46.962Z,44.30
2022-08-09T14:42:30.922Z,43.90
2022-08-09T14:46:39.618Z,44.00
2022-08-09T14:47:58.609Z,43.80
2022-08-09T14:50:30.388Z,43.40
2022-08-09T14:52:59.436Z,43.30
2022-08-09T14:55:32.210Z,44.00
2022-08-09T14:58:02.740Z,43.20
2022-08-09T15:00:33.343Z,43.10
2022-08-09T15:03:03.611Z,43.30
2022-08-09T15:05:32.016Z,44.40
2022-08-09T15:07:59.029Z,43.90
2022-08-09T15:10:27.777Z,43.10
2022-08-09T15:12:57.122Z,43.20
2022-08-09T15:15:28.478Z,42.80
2022-08-09T15:17:58.452Z,42.80
2022-08-09T15:22:01.116Z,42.90
2022-08-09T15:24:00.874Z,42.80
2022-08-09T15:26:01.083Z,43.10
2022-08-09T15:28:33.096Z,43.00
2022-08-09T15:31:13.393Z,43.10
2022-08-09T15:34:33.408Z,43.20
2022-08-09T15:36:32.329Z,43.80
2022-08-09T15:39:00.694Z,44.00
2022-08-09T15:41:31.217Z,44.10
2022-08-09T15:44:03.037Z,43.70
2022-08-09T15:46:34.481Z,43.40
2022-08-09T15:49:21.001Z,43.30
2022-08-09T15:52:04.113Z,43.30
2022-08-09T15:54:46.176Z,43.80
2022-08-09T15:57:35.195Z,43.50
2022-08-09T16:00:24.368Z,43.80
2022-08-09T16:02:56.592Z,44.10
2022-08-09T16:05:47.109Z,44.70
2022-08-09T16:08:30.465Z,45.30
2022-08-09T16:11:03.559Z,45.80
2022-08-09T16:14:04.192Z,46.10
2022-08-09T16:16:28.245Z,46.70
2022-08-09T16:18:55.647Z,46.40
2022-08-09T16:21:25.777Z,46.30
2022-08-09T16:23:58.860Z,45.80
2022-08-09T16:26:35.145Z,45.70
2022-08-09T16:29:12.524Z,45.50
2022-08-09T16:32:19.941Z,46.10
2022-08-09T16:34:56.121Z,45.30
2022-08-09T16:37:55.626Z,45.30
2022-08-09T16:40:29.456Z,45.10
2022-08-09T16:43:04.336Z,45.50
2022-08-09T16:45:31.999Z,45.80
2022-08-09T16:48:38.160Z,45.50
2022-08-09T16:50:49.721Z,45.10
2022-08-09T16:53:34.039Z,44.90
2022-08-09T16:56:06.293Z,44.90
2022-08-09T16:58:49.942Z,44.80
2022-08-09T17:01:19.384Z,44.60
2022-08-09T17:03:50.706Z,44.30
2022-08-09T17:06:31.373Z,44.80
2022-08-09T17:09:12.205Z,43.90
2022-08-09T17:11:48.163Z,44.10
2022-08-09T17:14:25.685Z,43.70
2022-08-09T17:17:02.260Z,44.00
2022-08-09T17:20:06.048Z,44.20
2022-08-09T17:22:30.713Z,44.40
2022-08-09T17:25:03.678Z,44.50
2022-08-09T17:27:38.361Z,44.60
2022-08-09T17:30:14.082Z,44.80
2022-08-09T17:32:44.261Z,44.90
2022-08-09T17:35:14.041Z,45.20
2022-08-09T17:38:11.282Z,45.80
2022-08-09T17:40:32.758Z,46.10
2022-08-09T17:43:32.930Z,47.60
2022-08-09T17:46:03.463Z,47.30
2022-08-09T17:48:39.573Z,47.40
2022-08-09T17:51:18.628Z,47.80
2022-08-09T17:53:54.962Z,48.20
2022-08-09T17:56:35.183Z,49.20
2022-08-09T17:59:09.206Z,48.20
2022-08-09T18:01:40.945Z,47.90
2022-08-09T18:04:25.922Z,47.70
2022-08-09T18:06:55.010Z,47.40
2022-08-09T18:09:35.783Z,47.20
2022-08-09T18:12:17.734Z,47.30
2022-08-09T18:14:54.608Z,47.10
2022-08-09T18:18:01.801Z,46.80
2022-08-09T18:20:53.815Z,46.80
2022-08-09T18:23:05.347Z,46.80
2022-08-09T18:25:50.292Z,47.60
2022-08-09T18:30:39.325Z,46.90
2022-08-09T18:31:15.577Z,46.90
2022-08-09T18:33:53.139Z,46.90
2022-08-09T18:36:25.842Z,47.10
2022-08-09T18:39:02.875Z,46.90
2022-08-09T18:41:34.299Z,47.20
2022-08-09T18:44:03.612Z,47.20
2022-08-09T18:46:49.688Z,47.20
2022-08-09T18:49:23.644Z,47.10
2022-08-09T18:51:55.391Z,47.20
2022-08-09T18:54:29.051Z,47.90
2022-08-09T18:57:06.241Z,48.40
2022-08-09T18:59:48.471Z,48.00
2022-08-09T19:02:17.711Z,48.90
2022-08-09T19:04:47.492Z,48.40
2022-08-09T19:07:27.683Z,49.10
2022-08-09T19:10:14.248Z,48.70
2022-08-09T19:12:54.986Z,49.10
2022-08-09T19:15:27.003Z,50.20
2022-08-09T19:17:54.917Z,50.30
2022-08-09T19:20:23.791Z,50.80
2022-08-09T19:22:54.861Z,50.80
2022-08-09T19:25:41.812Z,51.40
2022-08-09T19:28:13.463Z,51.80
2022-08-09T19:30:44.462Z,52.00
2022-08-09T19:33:19.333Z,52.30
2022-08-09T19:35:56.883Z,52.70
2022-08-09T19:38:27.493Z,53.30
2022-08-09T19:40:57.563Z,53.70
2022-08-09T19:44:00.480Z,54.40
2022-08-09T19:46:14.933Z,54.20
2022-08-09T19:49:00.397Z,54.80
2022-08-09T19:51:31.016Z,56.20
2022-08-09T19:53:59.528Z,55.20
2022-08-09T19:56:29.311Z,55.80
2022-08-09T19:59:39.393Z,56.30
2022-08-09T20:01:52.210Z,56.80
2022-08-09T20:04:36.667Z,56.20
2022-08-09T20:07:06.316Z,56.50
2022-08-09T20:09:44.991Z,57.10
2022-08-09T20:12:27.506Z,57.00
2022-08-09T20:15:04.576Z,57.50
2022-08-09T20:17:48.407Z,57.40
2022-08-09T20:20:19.786Z,58.40
2022-08-09T20:22:48.941Z,58.10
2022-08-09T20:25:22.369Z,59.90
2022-08-09T20:27:51.007Z,58.70
2022-08-09T20:30:21.712Z,58.60
2022-08-09T20:32:52.225Z,59.90
2022-08-09T20:35:20.792Z,59.60
2022-08-09T20:38:20.585Z,59.50
2022-08-09T20:40:37.036Z,59.60
2022-08-09T20:43:18.993Z,59.80
2022-08-09T20:45:56.787Z,60.40
2022-08-09T20:48:25.711Z,60.60
2022-08-09T20:50:58.059Z,62.00
2022-08-09T20:53:36.781Z,60.10
2022-08-09T20:56:20.919Z,60.80
2022-08-09T20:58:54.653Z,60.90
2022-08-09T21:01:34.242Z,61.50
2022-08-09T21:05:54.410Z,61.30
2022-08-09T21:07:11.854Z,62.20
2022-08-09T21:09:57.031Z,61.90
2022-08-09T21:15:16.231Z,63.10
2022-08-09T21:18:23.528Z,62.60
2022-08-09T21:20:33.073Z,63.00
2022-08-09T21:23:04.205Z,63.10
2022-08-09T21:25:56.432Z,63.30
2022-08-09T21:28:36.519Z,63.10
2022-08-09T21:31:17.416Z,63.80
2022-08-09T21:33:52.771Z,65.30
2022-08-09T21:36:29.154Z,65.40
2022-08-09T21:39:00.018Z,64.70
2022-08-09T21:42:04.668Z,64.60
2022-08-09T21:44:33.798Z,64.80
2022-08-09T21:47:08.902Z,65.20
2022-08-09T21:49:39.289Z,66.30
2022-08-09T21:52:15.028Z,66.90
2022-08-09T21:54:59.418Z,66.80
2022-08-09T21:57:58.470Z,66.50
2022-08-09T22:00:33.642Z,67.50
2022-08-09T22:03:05.756Z,67.50
2022-08-09T22:05:37.428Z,66.80
2022-08-09T22:08:14.627Z,67.10
2022-08-09T22:11:04.785Z,68.30
2022-08-09T22:13:34.645Z,68.50
2022-08-09T22:16:07.486Z,69.10
2022-08-09T22:18:37.625Z,68.90
2022-08-09T22:21:09.606Z,69.40
2022-08-09T22:23:59.593Z,69.60
2022-08-09T22:26:35.307Z,70.10
2022-08-09T22:29:10.039Z,70.40
2022-08-09T22:31:50.474Z,70.50
2022-08-09T22:34:26.173Z,71.10
2022-08-09T22:36:58.727Z,70.90
2022-08-09T22:39:55.448Z,70.50
2022-08-09T22:42:21.500Z,72.60
2022-08-09T22:48:04.475Z,71.70
2022-08-09T22:48:11.234Z,72.50
2022-08-09T22:50:27.288Z,73.10
2022-08-09T22:52:57.634Z,74.10
2022-08-09T22:55:39.384Z,73.70
2022-08-09T22:58:31.043Z,73.90
2022-08-09T23:01:06.283Z,75.10
2022-08-09T23:04:04.868Z,75.00
2022-08-09T23:06:32.604Z,74.60
2022-08-09T23:09:07.649Z,75.50
2022-08-09T23:11:35.213Z,76.10
2022-08-09T23:14:03.520Z,77.50
2022-08-09T23:16:31.689Z,76.60
2022-08-09T23:18:58.605Z,78.30
2022-08-09T23:21:30.065Z,76.70
2022-08-09T23:24:06.100Z,78.50
2022-08-09T23:26:39.223Z,77.10
2022-08-09T23:29:11.412Z,78.20
2022-08-09T23:31:38.315Z,78.50
2022-08-09T23:34:05.335Z,80.00
2022-08-09T23:36:34.631Z,80.30
2022-08-09T23:39:02.244Z,79.20
2022-08-09T23:41:29.772Z,79.80
2022-08-09T23:44:02.416Z,80.20
2022-08-09T23:46:31.020Z,81.10
2022-08-09T23:48:59.747Z,81.10
2022-08-09T23:51:27.402Z,80.80
2022-08-09T23:54:02.146Z,80.10
2022-08-09T23:56:52.884Z,80.90
2022-08-09T23:59:20.563Z,81.70
